Flight Track Log - Related Links

Times and Time Zones

All times are in EDT time to prevent confusion due to time zone crossing. See the FLG3740 flight status page for this flight to view local times or setup timezone preferences in your user account.

Time Position Orientation Groundspeed Altitude Reporting Facility
EDT Latitude Longitude Course Direction KTS MPH feet Rate Location/Type
Tue 04:13:49 PM 39.0500 -84.6833 351° North 163 188 1,400  Level Cincinnati TRACON
Tue 04:14:25 PM 39.0500 -84.7167 270° West 171 197 2,700 1,688 Climbing Cincinnati TRACON
Tue 04:15:25 PM 39.0500 -84.8167 270° West 284 327 4,100 2,300 Climbing Cincinnati TRACON
Tue 04:16:25 PM 39.0833 -84.8833 303° West 275 316 7,300 2,686 Climbing Cincinnati TRACON
Tue 04:17:00 PM 39.0751 -84.8950 351° North  Level FlightAware Approximate
Tue 04:17:10 PM 39.1403 -84.8992 348° North 281 323 8,800  Level Indianapolis Center
Tue 04:18:00 PM 39.1907 -84.9196 343° North  Level FlightAware Approximate
Tue 04:18:13 PM 39.2214 -84.9219 348° North 294 338 11,000  Level Indianapolis Center
Tue 04:19:00 PM 39.3038 -84.9579 351° North  Level FlightAware Approximate
Tue 04:19:15 PM 39.3178 -84.9481 348° North 346 398 12,400  Level Indianapolis Center
Tue 04:20:17 PM 39.4347 -84.9642 354° North 358 412 15,200 2,371 Climbing Indianapolis Center
Tue 04:21:19 PM 39.5328 -84.9794 353° North 356 410 17,300 1,548 Climbing Indianapolis Center
Tue 04:22:21 PM 39.6347 -84.9944 354° North 365 420 18,400 1,161 Climbing Indianapolis Center
Tue 04:23:23 PM 39.7419 -85.0108 353° North 381 438 19,700 1,258 Climbing Indianapolis Center
Tue 04:24:25 PM 39.8519 -85.0286 353° North 393 452 21,000 1,258 Climbing Indianapolis Center
Tue 04:25:27 PM 39.9625 -85.0456 353° North 395 455 22,300 968 Climbing Indianapolis Center
Tue 04:26:29 PM 40.0944 -85.0672 353° North 404 465 23,000 339 Climbing Indianapolis Center
Tue 04:27:31 PM 40.2150 -85.0853 353° North 430 495 23,000  Level Indianapolis Center
Tue 04:28:33 PM 40.3331 -85.1039 353° North 426 490 23,000  Level Indianapolis Center
Tue 04:29:35 PM 40.4506 -85.1225 353° North 424 488 23,000  Level Indianapolis Center
Tue 04:30:27 PM 40.5478 -85.1372 353° North 423 487 23,000  Level Chicago Center
Tue 04:31:29 PM 40.6600 -85.1544 353° North 423 487 23,000  Level Chicago Center
Tue 04:32:31 PM 40.8003 -85.1761 353° North 423 487 23,000  Level Chicago Center
Tue 04:33:33 PM 40.9169 -85.1947 353° North 423 487 23,000  Level Chicago Center
Tue 04:34:35 PM 41.0344 -85.2139 353° North 426 490 23,000  Level Chicago Center
Tue 04:35:37 PM 41.1517 -85.2322 353° North 425 489 23,000  Level Chicago Center
Tue 04:36:39 PM 41.2686 -85.2525 353° North 425 489 23,000  Level Chicago Center
Tue 04:37:41 PM 41.3861 -85.2722 353° North 427 491 23,000  Level Chicago Center
Tue 04:38:43 PM 41.5253 -85.2944 353° North 423 487 23,000  Level Chicago Center
Tue 04:39:45 PM 41.6389 -85.3133 353° North 424 488 23,000  Level Chicago Center
Tue 04:40:47 PM 41.7531 -85.3319 353° North 426 490 23,000 -1,008 Level Chicago Center
Tue 04:41:50 PM 41.8842 -85.3553 352° North 407 468 20,900 -1,920 Descending Chicago Center
Tue 04:42:52 PM 41.9881 -85.3714 353° North 379 436 19,000 -1,984 Descending Chicago Center
Tue 04:43:54 PM 42.1006 -85.3911 353° North 377 434 16,800 -2,032 Descending Chicago Center
Tue 04:44:56 PM 42.2019 -85.4083 353° North 369 425 14,800 -1,935 Descending Chicago Center
Tue 04:45:58 PM 42.2994 -85.4217 354° North 356 410 12,800 -1,790 Descending Chicago Center
Tue 04:47:00 PM 42.3950 -85.4383 353° North 349 402 11,100 -871 Descending Chicago Center
Tue 04:48:02 PM 42.4894 -85.3975 18° North 357 411 11,000 -629 Descending Chicago Center
Tue 04:49:04 PM 42.5761 -85.3453 24° Northeast 348 400 9,800 -968 Descending Chicago Center
Tue 04:50:06 PM 42.6678 -85.3550 356° North 292 336 9,000 -968 Descending Chicago Center
Tue 04:51:08 PM 42.7467 -85.3706 352° North 287 330 7,800 -1,355 Descending Chicago Center
Tue 04:52:10 PM 42.8214 -85.3858 351° North 278 320 6,200 -1,355 Descending Chicago Center
Tue 04:53:12 PM 42.8939 -85.4033 350° North 270 311 5,000 -1,355 Descending Chicago Center
Tue 04:54:14 PM 42.9581 -85.4236 347° North 249 287 3,400 -1,210 Descending Chicago Center
Tue 04:55:16 PM 42.9628 -85.5106 274° West 208 239 2,500 -871 Descending Chicago Center

Login

Don't have an account? Register now (free) for customized features, flight alerts, and more!